sensor_id;sensor_type;location;lat;lon;timestamp;P1;durP1;ratioP1;P2;durP2;ratioP2
75289;SDS011;63883;48.996;20.804;2023-09-19T00:00:23;10.95;;;7.72;;
75289;SDS011;63883;48.996;20.804;2023-09-19T00:03:11;11.55;;;7.82;;
75289;SDS011;63883;48.996;20.804;2023-09-19T00:05:37;11.75;;;8.27;;
75289;SDS011;63883;48.996;20.804;2023-09-19T00:08:04;11.50;;;7.93;;
75289;SDS011;63883;48.996;20.804;2023-09-19T00:10:30;12.00;;;7.82;;
75289;SDS011;63883;48.996;20.804;2023-09-19T00:13:00;11.32;;;8.02;;
75289;SDS011;63883;48.996;20.804;2023-09-19T00:15:30;11.40;;;7.18;;
75289;SDS011;63883;48.996;20.804;2023-09-19T00:18:03;10.05;;;7.35;;
75289;SDS011;63883;48.996;20.804;2023-09-19T00:20:31;11.35;;;7.63;;
75289;SDS011;63883;48.996;20.804;2023-09-19T00:22:58;11.40;;;7.35;;
75289;SDS011;63883;48.996;20.804;2023-09-19T00:25:24;11.93;;;8.05;;
75289;SDS011;63883;48.996;20.804;2023-09-19T00:27:51;11.38;;;7.40;;
75289;SDS011;63883;48.996;20.804;2023-09-19T00:30:17;8.60;;;6.47;;
75289;SDS011;63883;48.996;20.804;2023-09-19T00:32:46;9.80;;;7.13;;
75289;SDS011;63883;48.996;20.804;2023-09-19T00:35:13;11.27;;;6.90;;
75289;SDS011;63883;48.996;20.804;2023-09-19T00:37:41;10.10;;;6.72;;
75289;SDS011;63883;48.996;20.804;2023-09-19T00:40:07;10.25;;;7.03;;
75289;SDS011;63883;48.996;20.804;2023-09-19T00:42:41;8.75;;;6.38;;
75289;SDS011;63883;48.996;20.804;2023-09-19T00:45:07;9.90;;;7.47;;
75289;SDS011;63883;48.996;20.804;2023-09-19T00:47:38;9.85;;;7.00;;
75289;SDS011;63883;48.996;20.804;2023-09-19T00:50:11;8.93;;;6.93;;
75289;SDS011;63883;48.996;20.804;2023-09-19T00:52:40;11.10;;;6.80;;
75289;SDS011;63883;48.996;20.804;2023-09-19T00:55:08;12.35;;;7.05;;
75289;SDS011;63883;48.996;20.804;2023-09-19T00:57:35;9.25;;;6.88;;
75289;SDS011;63883;48.996;20.804;2023-09-19T01:00:04;9.05;;;6.88;;
75289;SDS011;63883;48.996;20.804;2023-09-19T01:02:32;8.98;;;6.68;;
75289;SDS011;63883;48.996;20.804;2023-09-19T01:04:59;8.68;;;6.90;;
75289;SDS011;63883;48.996;20.804;2023-09-19T01:07:26;10.13;;;6.85;;
75289;SDS011;63883;48.996;20.804;2023-09-19T01:09:55;9.63;;;6.97;;
75289;SDS011;63883;48.996;20.804;2023-09-19T01:12:30;9.80;;;7.45;;
75289;SDS011;63883;48.996;20.804;2023-09-19T01:18:02;9.15;;;6.75;;
75289;SDS011;63883;48.996;20.804;2023-09-19T01:29:39;7.63;;;6.28;;
75289;SDS011;63883;48.996;20.804;2023-09-19T01:32:08;9.00;;;6.43;;
75289;SDS011;63883;48.996;20.804;2023-09-19T01:37:24;9.75;;;6.05;;
75289;SDS011;63883;48.996;20.804;2023-09-19T01:39:52;6.75;;;6.05;;
75289;SDS011;63883;48.996;20.804;2023-09-19T01:42:23;7.85;;;5.95;;
75289;SDS011;63883;48.996;20.804;2023-09-19T01:45:04;7.32;;;5.70;;
75289;SDS011;63883;48.996;20.804;2023-09-19T01:47:54;9.65;;;6.07;;
75289;SDS011;63883;48.996;20.804;2023-09-19T01:50:32;8.20;;;5.60;;
75289;SDS011;63883;48.996;20.804;2023-09-19T01:53:24;6.78;;;5.53;;
75289;SDS011;63883;48.996;20.804;2023-09-19T01:55:57;8.32;;;6.30;;
75289;SDS011;63883;48.996;20.804;2023-09-19T01:58:32;6.88;;;5.88;;
75289;SDS011;63883;48.996;20.804;2023-09-19T02:01:04;6.50;;;5.50;;
75289;SDS011;63883;48.996;20.804;2023-09-19T02:03:33;8.45;;;5.65;;
75289;SDS011;63883;48.996;20.804;2023-09-19T02:06:01;7.63;;;5.72;;
75289;SDS011;63883;48.996;20.804;2023-09-19T02:08:28;7.50;;;5.93;;
75289;SDS011;63883;48.996;20.804;2023-09-19T02:10:58;8.65;;;5.93;;
75289;SDS011;63883;48.996;20.804;2023-09-19T02:13:25;7.45;;;6.05;;
75289;SDS011;63883;48.996;20.804;2023-09-19T02:15:53;7.95;;;5.63;;
75289;SDS011;63883;48.996;20.804;2023-09-19T02:18:19;8.35;;;6.15;;
75289;SDS011;63883;48.996;20.804;2023-09-19T02:20:45;10.65;;;6.25;;
75289;SDS011;63883;48.996;20.804;2023-09-19T02:23:11;8.70;;;6.10;;
75289;SDS011;63883;48.996;20.804;2023-09-19T02:25:38;7.30;;;5.78;;
75289;SDS011;63883;48.996;20.804;2023-09-19T02:28:04;8.23;;;5.97;;
75289;SDS011;63883;48.996;20.804;2023-09-19T02:30:31;7.88;;;6.20;;
75289;SDS011;63883;48.996;20.804;2023-09-19T02:32:56;6.88;;;5.68;;
75289;SDS011;63883;48.996;20.804;2023-09-19T02:35:22;8.60;;;5.85;;
75289;SDS011;63883;48.996;20.804;2023-09-19T02:37:48;8.90;;;6.60;;
75289;SDS011;63883;48.996;20.804;2023-09-19T02:40:14;8.52;;;6.10;;
75289;SDS011;63883;48.996;20.804;2023-09-19T02:42:54;9.50;;;6.90;;
75289;SDS011;63883;48.996;20.804;2023-09-19T02:45:20;9.02;;;5.97;;
75289;SDS011;63883;48.996;20.804;2023-09-19T02:47:46;9.30;;;6.28;;
75289;SDS011;63883;48.996;20.804;2023-09-19T02:50:13;7.70;;;6.00;;
75289;SDS011;63883;48.996;20.804;2023-09-19T02:52:43;8.57;;;6.70;;
75289;SDS011;63883;48.996;20.804;2023-09-19T02:55:10;8.60;;;6.18;;
75289;SDS011;63883;48.996;20.804;2023-09-19T02:57:39;9.15;;;6.68;;
75289;SDS011;63883;48.996;20.804;2023-09-19T03:00:08;8.13;;;6.13;;
75289;SDS011;63883;48.996;20.804;2023-09-19T03:02:37;8.13;;;6.03;;
75289;SDS011;63883;48.996;20.804;2023-09-19T03:05:05;8.23;;;6.45;;
75289;SDS011;63883;48.996;20.804;2023-09-19T03:07:31;8.40;;;6.63;;
75289;SDS011;63883;48.996;20.804;2023-09-19T03:09:57;8.90;;;6.97;;
75289;SDS011;63883;48.996;20.804;2023-09-19T03:12:22;8.85;;;6.82;;
75289;SDS011;63883;48.996;20.804;2023-09-19T03:14:48;9.35;;;7.25;;
75289;SDS011;63883;48.996;20.804;2023-09-19T03:17:15;10.40;;;7.47;;
75289;SDS011;63883;48.996;20.804;2023-09-19T03:19:41;9.18;;;7.78;;
75289;SDS011;63883;48.996;20.804;2023-09-19T03:22:07;9.05;;;7.60;;
75289;SDS011;63883;48.996;20.804;2023-09-19T03:24:33;11.55;;;8.35;;
75289;SDS011;63883;48.996;20.804;2023-09-19T03:27:01;11.07;;;8.38;;
75289;SDS011;63883;48.996;20.804;2023-09-19T03:29:27;10.30;;;7.78;;
75289;SDS011;63883;48.996;20.804;2023-09-19T03:31:52;10.68;;;8.10;;
75289;SDS011;63883;48.996;20.804;2023-09-19T03:34:20;10.10;;;8.75;;
75289;SDS011;63883;48.996;20.804;2023-09-19T03:36:46;10.75;;;8.82;;
75289;SDS011;63883;48.996;20.804;2023-09-19T03:39:11;10.55;;;7.93;;
75289;SDS011;63883;48.996;20.804;2023-09-19T03:41:37;10.32;;;8.00;;
75289;SDS011;63883;48.996;20.804;2023-09-19T03:44:04;9.95;;;8.60;;
75289;SDS011;63883;48.996;20.804;2023-09-19T03:46:29;12.00;;;7.85;;
75289;SDS011;63883;48.996;20.804;2023-09-19T03:48:55;11.48;;;8.13;;
75289;SDS011;63883;48.996;20.804;2023-09-19T03:51:21;9.73;;;8.18;;
75289;SDS011;63883;48.996;20.804;2023-09-19T03:53:47;9.68;;;8.43;;
75289;SDS011;63883;48.996;20.804;2023-09-19T03:56:14;10.13;;;8.57;;
75289;SDS011;63883;48.996;20.804;2023-09-19T03:58:40;11.77;;;8.65;;
75289;SDS011;63883;48.996;20.804;2023-09-19T04:01:05;10.55;;;8.77;;
75289;SDS011;63883;48.996;20.804;2023-09-19T04:03:35;11.32;;;8.32;;
75289;SDS011;63883;48.996;20.804;2023-09-19T04:06:14;11.43;;;9.27;;
75289;SDS011;63883;48.996;20.804;2023-09-19T04:08:41;10.85;;;9.00;;
75289;SDS011;63883;48.996;20.804;2023-09-19T04:11:07;13.07;;;9.95;;
75289;SDS011;63883;48.996;20.804;2023-09-19T04:13:33;11.65;;;9.38;;
75289;SDS011;63883;48.996;20.804;2023-09-19T04:15:58;11.75;;;9.30;;
75289;SDS011;63883;48.996;20.804;2023-09-19T04:18:25;13.55;;;10.15;;
75289;SDS011;63883;48.996;20.804;2023-09-19T04:20:51;11.68;;;9.52;;
75289;SDS011;63883;48.996;20.804;2023-09-19T04:23:17;12.20;;;8.95;;
75289;SDS011;63883;48.996;20.804;2023-09-19T04:25:43;12.50;;;9.75;;
75289;SDS011;63883;48.996;20.804;2023-09-19T04:28:09;12.23;;;9.40;;
75289;SDS011;63883;48.996;20.804;2023-09-19T04:30:36;12.40;;;9.40;;
75289;SDS011;63883;48.996;20.804;2023-09-19T04:33:03;12.60;;;9.70;;
75289;SDS011;63883;48.996;20.804;2023-09-19T04:35:29;10.50;;;8.57;;
75289;SDS011;63883;48.996;20.804;2023-09-19T04:37:57;11.05;;;8.75;;
75289;SDS011;63883;48.996;20.804;2023-09-19T04:40:23;12.25;;;8.52;;
75289;SDS011;63883;48.996;20.804;2023-09-19T04:42:55;9.55;;;7.65;;
75289;SDS011;63883;48.996;20.804;2023-09-19T04:45:24;11.20;;;7.85;;
75289;SDS011;63883;48.996;20.804;2023-09-19T04:47:52;9.25;;;7.43;;
75289;SDS011;63883;48.996;20.804;2023-09-19T04:50:18;9.30;;;7.47;;
75289;SDS011;63883;48.996;20.804;2023-09-19T04:52:44;8.90;;;6.80;;
75289;SDS011;63883;48.996;20.804;2023-09-19T04:57:51;8.02;;;6.40;;
75289;SDS011;63883;48.996;20.804;2023-09-19T05:00:21;7.35;;;6.55;;
75289;SDS011;63883;48.996;20.804;2023-09-19T05:02:50;8.00;;;6.65;;
75289;SDS011;63883;48.996;20.804;2023-09-19T05:05:16;7.60;;;6.80;;
75289;SDS011;63883;48.996;20.804;2023-09-19T05:07:43;8.23;;;7.15;;
75289;SDS011;63883;48.996;20.804;2023-09-19T05:10:12;9.57;;;6.90;;
75289;SDS011;63883;48.996;20.804;2023-09-19T05:12:38;10.02;;;7.32;;
75289;SDS011;63883;48.996;20.804;2023-09-19T05:15:05;10.43;;;7.30;;
75289;SDS011;63883;48.996;20.804;2023-09-19T05:17:35;8.38;;;7.30;;
75289;SDS011;63883;48.996;20.804;2023-09-19T05:20:01;8.43;;;7.00;;
75289;SDS011;63883;48.996;20.804;2023-09-19T05:22:42;9.45;;;7.50;;
75289;SDS011;63883;48.996;20.804;2023-09-19T05:25:08;12.10;;;8.13;;
75289;SDS011;63883;48.996;20.804;2023-09-19T05:27:35;9.93;;;8.38;;
75289;SDS011;63883;48.996;20.804;2023-09-19T05:30:01;9.88;;;8.02;;
75289;SDS011;63883;48.996;20.804;2023-09-19T05:32:27;10.55;;;8.20;;
75289;SDS011;63883;48.996;20.804;2023-09-19T05:34:52;11.05;;;8.45;;
75289;SDS011;63883;48.996;20.804;2023-09-19T05:37:19;10.65;;;8.48;;
75289;SDS011;63883;48.996;20.804;2023-09-19T05:39:45;10.60;;;8.82;;
75289;SDS011;63883;48.996;20.804;2023-09-19T05:42:10;12.80;;;8.85;;
75289;SDS011;63883;48.996;20.804;2023-09-19T05:44:36;11.82;;;8.93;;
75289;SDS011;63883;48.996;20.804;2023-09-19T05:47:05;11.80;;;8.75;;
75289;SDS011;63883;48.996;20.804;2023-09-19T05:49:34;13.05;;;8.93;;
75289;SDS011;63883;48.996;20.804;2023-09-19T05:52:04;11.82;;;9.07;;
75289;SDS011;63883;48.996;20.804;2023-09-19T05:54:30;11.77;;;8.95;;
75289;SDS011;63883;48.996;20.804;2023-09-19T05:56:56;13.60;;;9.18;;
75289;SDS011;63883;48.996;20.804;2023-09-19T05:59:23;13.30;;;9.30;;
75289;SDS011;63883;48.996;20.804;2023-09-19T06:01:48;13.00;;;9.90;;
75289;SDS011;63883;48.996;20.804;2023-09-19T06:04:14;12.93;;;9.48;;
75289;SDS011;63883;48.996;20.804;2023-09-19T06:06:40;12.48;;;9.60;;
75289;SDS011;63883;48.996;20.804;2023-09-19T06:09:06;13.02;;;9.65;;
75289;SDS011;63883;48.996;20.804;2023-09-19T06:14:00;12.00;;;9.05;;
75289;SDS011;63883;48.996;20.804;2023-09-19T06:16:32;12.98;;;9.70;;
75289;SDS011;63883;48.996;20.804;2023-09-19T06:18:57;12.50;;;9.82;;
75289;SDS011;63883;48.996;20.804;2023-09-19T06:21:26;13.35;;;9.85;;
75289;SDS011;63883;48.996;20.804;2023-09-19T06:23:52;15.20;;;10.32;;
75289;SDS011;63883;48.996;20.804;2023-09-19T06:26:19;13.57;;;10.05;;
75289;SDS011;63883;48.996;20.804;2023-09-19T06:28:44;14.15;;;10.23;;
75289;SDS011;63883;48.996;20.804;2023-09-19T06:31:10;13.35;;;9.77;;
75289;SDS011;63883;48.996;20.804;2023-09-19T06:33:36;12.70;;;9.77;;
75289;SDS011;63883;48.996;20.804;2023-09-19T06:36:06;12.07;;;9.05;;
75289;SDS011;63883;48.996;20.804;2023-09-19T06:38:32;12.32;;;9.27;;
75289;SDS011;63883;48.996;20.804;2023-09-19T06:40:59;12.35;;;9.48;;
75289;SDS011;63883;48.996;20.804;2023-09-19T06:43:35;12.68;;;8.73;;
75289;SDS011;63883;48.996;20.804;2023-09-19T06:46:01;11.20;;;8.93;;
75289;SDS011;63883;48.996;20.804;2023-09-19T06:48:27;14.52;;;9.13;;
75289;SDS011;63883;48.996;20.804;2023-09-19T06:50:55;12.18;;;9.60;;
75289;SDS011;63883;48.996;20.804;2023-09-19T06:53:24;11.07;;;8.68;;
75289;SDS011;63883;48.996;20.804;2023-09-19T06:55:50;11.30;;;8.40;;
75289;SDS011;63883;48.996;20.804;2023-09-19T06:58:16;12.65;;;8.95;;
75289;SDS011;63883;48.996;20.804;2023-09-19T07:00:42;11.73;;;9.18;;
75289;SDS011;63883;48.996;20.804;2023-09-19T07:03:08;14.90;;;10.18;;
75289;SDS011;63883;48.996;20.804;2023-09-19T07:05:37;14.20;;;9.63;;
75289;SDS011;63883;48.996;20.804;2023-09-19T07:08:05;13.70;;;9.85;;
75289;SDS011;63883;48.996;20.804;2023-09-19T07:10:32;11.98;;;8.80;;
75289;SDS011;63883;48.996;20.804;2023-09-19T07:15:25;13.80;;;9.20;;
75289;SDS011;63883;48.996;20.804;2023-09-19T07:17:51;15.00;;;9.75;;
75289;SDS011;63883;48.996;20.804;2023-09-19T07:20:22;11.75;;;9.00;;
75289;SDS011;63883;48.996;20.804;2023-09-19T07:22:51;11.18;;;8.43;;
75289;SDS011;63883;48.996;20.804;2023-09-19T07:25:17;11.50;;;8.38;;
75289;SDS011;63883;48.996;20.804;2023-09-19T07:27:43;12.43;;;8.98;;
75289;SDS011;63883;48.996;20.804;2023-09-19T07:30:09;10.48;;;8.68;;
75289;SDS011;63883;48.996;20.804;2023-09-19T07:32:37;12.38;;;8.32;;
75289;SDS011;63883;48.996;20.804;2023-09-19T07:35:04;13.23;;;8.60;;
75289;SDS011;63883;48.996;20.804;2023-09-19T07:37:31;9.77;;;7.97;;
75289;SDS011;63883;48.996;20.804;2023-09-19T07:40:05;9.80;;;8.10;;
75289;SDS011;63883;48.996;20.804;2023-09-19T07:42:35;13.25;;;9.25;;
75289;SDS011;63883;48.996;20.804;2023-09-19T07:45:06;11.63;;;7.93;;
75289;SDS011;63883;48.996;20.804;2023-09-19T07:47:33;9.95;;;7.93;;
75289;SDS011;63883;48.996;20.804;2023-09-19T07:50:00;11.13;;;7.95;;
75289;SDS011;63883;48.996;20.804;2023-09-19T07:52:28;8.35;;;7.45;;
75289;SDS011;63883;48.996;20.804;2023-09-19T07:54:54;8.63;;;6.90;;
75289;SDS011;63883;48.996;20.804;2023-09-19T07:57:22;8.70;;;7.18;;
75289;SDS011;63883;48.996;20.804;2023-09-19T07:59:48;9.02;;;6.85;;
75289;SDS011;63883;48.996;20.804;2023-09-19T08:02:13;5.90;;;4.93;;
75289;SDS011;63883;48.996;20.804;2023-09-19T08:04:44;6.55;;;4.90;;
75289;SDS011;63883;48.996;20.804;2023-09-19T08:07:12;5.18;;;3.97;;
75289;SDS011;63883;48.996;20.804;2023-09-19T08:09:38;3.75;;;3.40;;
75289;SDS011;63883;48.996;20.804;2023-09-19T08:12:05;3.58;;;3.28;;
75289;SDS011;63883;48.996;20.804;2023-09-19T08:14:33;3.92;;;3.35;;
75289;SDS011;63883;48.996;20.804;2023-09-19T08:16:59;3.83;;;3.30;;
75289;SDS011;63883;48.996;20.804;2023-09-19T08:19:26;3.10;;;2.80;;
75289;SDS011;63883;48.996;20.804;2023-09-19T08:21:57;3.17;;;2.88;;
75289;SDS011;63883;48.996;20.804;2023-09-19T08:24:27;3.00;;;2.70;;
75289;SDS011;63883;48.996;20.804;2023-09-19T08:26:54;2.40;;;2.25;;
75289;SDS011;63883;48.996;20.804;2023-09-19T08:29:21;2.60;;;2.40;;
75289;SDS011;63883;48.996;20.804;2023-09-19T08:32:01;3.03;;;2.45;;
75289;SDS011;63883;48.996;20.804;2023-09-19T08:34:27;3.05;;;2.50;;
75289;SDS011;63883;48.996;20.804;2023-09-19T08:36:53;2.63;;;2.42;;
75289;SDS011;63883;48.996;20.804;2023-09-19T08:39:25;2.80;;;2.60;;
75289;SDS011;63883;48.996;20.804;2023-09-19T08:42:00;2.97;;;2.65;;
75289;SDS011;63883;48.996;20.804;2023-09-19T08:44:27;2.70;;;2.40;;
75289;SDS011;63883;48.996;20.804;2023-09-19T08:47:14;4.03;;;2.53;;
75289;SDS011;63883;48.996;20.804;2023-09-19T08:49:44;2.92;;;2.60;;
75289;SDS011;63883;48.996;20.804;2023-09-19T08:52:32;2.60;;;2.40;;
75289;SDS011;63883;48.996;20.804;2023-09-19T08:55:02;2.78;;;2.47;;
75289;SDS011;63883;48.996;20.804;2023-09-19T08:57:35;2.95;;;2.72;;
75289;SDS011;63883;48.996;20.804;2023-09-19T09:00:05;3.22;;;2.92;;
75289;SDS011;63883;48.996;20.804;2023-09-19T09:02:36;3.25;;;2.95;;
75289;SDS011;63883;48.996;20.804;2023-09-19T09:05:05;3.55;;;3.05;;
75289;SDS011;63883;48.996;20.804;2023-09-19T09:07:35;3.70;;;3.28;;
75289;SDS011;63883;48.996;20.804;2023-09-19T09:10:02;3.55;;;3.22;;
75289;SDS011;63883;48.996;20.804;2023-09-19T09:12:28;3.88;;;3.47;;
75289;SDS011;63883;48.996;20.804;2023-09-19T09:14:55;3.88;;;3.58;;
75289;SDS011;63883;48.996;20.804;2023-09-19T09:17:23;3.90;;;3.50;;
75289;SDS011;63883;48.996;20.804;2023-09-19T09:19:53;4.07;;;3.63;;
75289;SDS011;63883;48.996;20.804;2023-09-19T09:22:19;4.57;;;3.90;;
75289;SDS011;63883;48.996;20.804;2023-09-19T09:27:23;4.65;;;3.63;;
75289;SDS011;63883;48.996;20.804;2023-09-19T09:29:50;3.75;;;3.30;;
75289;SDS011;63883;48.996;20.804;2023-09-19T09:34:52;3.63;;;3.33;;
75289;SDS011;63883;48.996;20.804;2023-09-19T09:37:19;4.03;;;3.63;;
75289;SDS011;63883;48.996;20.804;2023-09-19T09:39:52;4.40;;;3.47;;
75289;SDS011;63883;48.996;20.804;2023-09-19T09:42:34;3.85;;;3.53;;
75289;SDS011;63883;48.996;20.804;2023-09-19T09:45:19;4.90;;;3.47;;
75289;SDS011;63883;48.996;20.804;2023-09-19T09:47:58;3.90;;;3.40;;
75289;SDS011;63883;48.996;20.804;2023-09-19T09:53:02;4.53;;;4.13;;
75289;SDS011;63883;48.996;20.804;2023-09-19T09:58:31;4.22;;;3.80;;
75289;SDS011;63883;48.996;20.804;2023-09-19T10:01:01;4.32;;;3.90;;
75289;SDS011;63883;48.996;20.804;2023-09-19T10:03:40;4.60;;;4.10;;
75289;SDS011;63883;48.996;20.804;2023-09-19T10:06:10;5.20;;;4.18;;
75289;SDS011;63883;48.996;20.804;2023-09-19T10:09:02;4.43;;;3.85;;
75289;SDS011;63883;48.996;20.804;2023-09-19T10:14:23;6.75;;;4.10;;
75289;SDS011;63883;48.996;20.804;2023-09-19T10:16:54;4.90;;;4.40;;
75289;SDS011;63883;48.996;20.804;2023-09-19T10:19:50;6.22;;;4.32;;
75289;SDS011;63883;48.996;20.804;2023-09-19T10:22:19;5.47;;;4.43;;
75289;SDS011;63883;48.996;20.804;2023-09-19T10:24:48;5.57;;;4.60;;
75289;SDS011;63883;48.996;20.804;2023-09-19T10:27:21;6.03;;;5.38;;
75289;SDS011;63883;48.996;20.804;2023-09-19T10:29:48;6.32;;;5.00;;
75289;SDS011;63883;48.996;20.804;2023-09-19T10:32:19;6.13;;;5.00;;
75289;SDS011;63883;48.996;20.804;2023-09-19T10:34:48;5.82;;;5.00;;
75289;SDS011;63883;48.996;20.804;2023-09-19T10:37:18;5.10;;;4.57;;
75289;SDS011;63883;48.996;20.804;2023-09-19T10:39:47;5.70;;;4.65;;
75289;SDS011;63883;48.996;20.804;2023-09-19T10:42:16;4.97;;;4.45;;
75289;SDS011;63883;48.996;20.804;2023-09-19T10:44:45;5.13;;;4.57;;
75289;SDS011;63883;48.996;20.804;2023-09-19T10:49:45;4.95;;;4.10;;
75289;SDS011;63883;48.996;20.804;2023-09-19T10:52:15;5.13;;;4.13;;
75289;SDS011;63883;48.996;20.804;2023-09-19T10:54:48;5.25;;;4.13;;
75289;SDS011;63883;48.996;20.804;2023-09-19T10:57:24;5.63;;;4.05;;
75289;SDS011;63883;48.996;20.804;2023-09-19T11:00:07;5.53;;;4.53;;
75289;SDS011;63883;48.996;20.804;2023-09-19T11:05:39;6.07;;;4.28;;
75289;SDS011;63883;48.996;20.804;2023-09-19T11:08:06;4.85;;;4.28;;
75289;SDS011;63883;48.996;20.804;2023-09-19T11:10:51;5.65;;;4.57;;
75289;SDS011;63883;48.996;20.804;2023-09-19T11:13:26;5.40;;;4.82;;
75289;SDS011;63883;48.996;20.804;2023-09-19T11:18:56;6.45;;;5.13;;
75289;SDS011;63883;48.996;20.804;2023-09-19T11:26:41;6.78;;;5.20;;
75289;SDS011;63883;48.996;20.804;2023-09-19T11:29:31;6.57;;;5.18;;
75289;SDS011;63883;48.996;20.804;2023-09-19T11:31:57;6.95;;;4.72;;
75289;SDS011;63883;48.996;20.804;2023-09-19T11:34:40;6.95;;;4.63;;
75289;SDS011;63883;48.996;20.804;2023-09-19T11:39:40;5.18;;;4.30;;
75289;SDS011;63883;48.996;20.804;2023-09-19T11:45:07;6.43;;;4.90;;
75289;SDS011;63883;48.996;20.804;2023-09-19T11:47:33;8.75;;;5.53;;
75289;SDS011;63883;48.996;20.804;2023-09-19T11:50:00;5.75;;;5.07;;
75289;SDS011;63883;48.996;20.804;2023-09-19T11:52:27;5.63;;;4.38;;
75289;SDS011;63883;48.996;20.804;2023-09-19T11:55:00;5.13;;;4.50;;
75289;SDS011;63883;48.996;20.804;2023-09-19T11:57:27;5.57;;;4.72;;
75289;SDS011;63883;48.996;20.804;2023-09-19T11:59:55;8.00;;;5.50;;
75289;SDS011;63883;48.996;20.804;2023-09-19T12:02:31;6.28;;;5.30;;
75289;SDS011;63883;48.996;20.804;2023-09-19T12:05:05;6.50;;;5.28;;
75289;SDS011;63883;48.996;20.804;2023-09-19T12:07:31;9.18;;;5.93;;
75289;SDS011;63883;48.996;20.804;2023-09-19T12:10:09;7.65;;;6.38;;
75289;SDS011;63883;48.996;20.804;2023-09-19T12:12:36;7.53;;;5.47;;
75289;SDS011;63883;48.996;20.804;2023-09-19T12:15:02;7.90;;;5.78;;
75289;SDS011;63883;48.996;20.804;2023-09-19T12:17:38;7.28;;;5.30;;
75289;SDS011;63883;48.996;20.804;2023-09-19T12:20:06;8.02;;;6.13;;
75289;SDS011;63883;48.996;20.804;2023-09-19T12:22:39;7.95;;;5.25;;
75289;SDS011;63883;48.996;20.804;2023-09-19T12:25:12;7.10;;;5.55;;
75289;SDS011;63883;48.996;20.804;2023-09-19T12:27:42;7.60;;;5.03;;
75289;SDS011;63883;48.996;20.804;2023-09-19T12:30:09;6.97;;;5.57;;
75289;SDS011;63883;48.996;20.804;2023-09-19T12:32:39;6.88;;;5.53;;
75289;SDS011;63883;48.996;20.804;2023-09-19T12:35:06;7.60;;;5.93;;
75289;SDS011;63883;48.996;20.804;2023-09-19T12:37:44;7.88;;;5.68;;
75289;SDS011;63883;48.996;20.804;2023-09-19T12:40:19;7.53;;;5.50;;
75289;SDS011;63883;48.996;20.804;2023-09-19T12:42:53;7.82;;;5.18;;
75289;SDS011;63883;48.996;20.804;2023-09-19T12:45:30;7.00;;;4.80;;
75289;SDS011;63883;48.996;20.804;2023-09-19T12:51:01;4.35;;;3.60;;
75289;SDS011;63883;48.996;20.804;2023-09-19T12:53:34;4.93;;;4.25;;
75289;SDS011;63883;48.996;20.804;2023-09-19T12:56:06;5.40;;;4.35;;
75289;SDS011;63883;48.996;20.804;2023-09-19T12:58:34;5.82;;;4.28;;
75289;SDS011;63883;48.996;20.804;2023-09-19T13:01:00;6.50;;;4.80;;
75289;SDS011;63883;48.996;20.804;2023-09-19T13:03:30;5.55;;;4.75;;
75289;SDS011;63883;48.996;20.804;2023-09-19T13:06:00;6.30;;;5.18;;
75289;SDS011;63883;48.996;20.804;2023-09-19T13:08:38;5.05;;;3.83;;
75289;SDS011;63883;48.996;20.804;2023-09-19T13:13:45;5.18;;;4.03;;
75289;SDS011;63883;48.996;20.804;2023-09-19T13:16:15;5.50;;;4.05;;
75289;SDS011;63883;48.996;20.804;2023-09-19T13:18:48;4.90;;;4.40;;
75289;SDS011;63883;48.996;20.804;2023-09-19T13:21:31;5.25;;;3.83;;
75289;SDS011;63883;48.996;20.804;2023-09-19T13:24:18;5.35;;;4.13;;
75289;SDS011;63883;48.996;20.804;2023-09-19T13:26:53;4.72;;;4.18;;
75289;SDS011;63883;48.996;20.804;2023-09-19T13:29:19;4.65;;;3.92;;
75289;SDS011;63883;48.996;20.804;2023-09-19T13:31:51;4.85;;;3.85;;
75289;SDS011;63883;48.996;20.804;2023-09-19T13:34:21;5.15;;;3.90;;
75289;SDS011;63883;48.996;20.804;2023-09-19T13:36:47;5.53;;;4.32;;
75289;SDS011;63883;48.996;20.804;2023-09-19T13:39:15;5.47;;;3.83;;
75289;SDS011;63883;48.996;20.804;2023-09-19T13:41:43;4.85;;;3.47;;
75289;SDS011;63883;48.996;20.804;2023-09-19T13:44:13;5.32;;;4.35;;
75289;SDS011;63883;48.996;20.804;2023-09-19T13:46:39;5.45;;;4.57;;
75289;SDS011;63883;48.996;20.804;2023-09-19T13:49:05;7.40;;;5.20;;
75289;SDS011;63883;48.996;20.804;2023-09-19T13:51:31;6.90;;;5.43;;
75289;SDS011;63883;48.996;20.804;2023-09-19T13:53:57;6.68;;;5.03;;
75289;SDS011;63883;48.996;20.804;2023-09-19T13:56:25;6.38;;;4.80;;
75289;SDS011;63883;48.996;20.804;2023-09-19T13:58:56;5.55;;;4.50;;
75289;SDS011;63883;48.996;20.804;2023-09-19T14:01:22;4.43;;;4.00;;
75289;SDS011;63883;48.996;20.804;2023-09-19T14:03:48;3.47;;;3.17;;
75289;SDS011;63883;48.996;20.804;2023-09-19T14:06:16;3.90;;;3.33;;
75289;SDS011;63883;48.996;20.804;2023-09-19T14:08:43;4.18;;;3.10;;
75289;SDS011;63883;48.996;20.804;2023-09-19T14:11:13;3.58;;;3.25;;
75289;SDS011;63883;48.996;20.804;2023-09-19T14:13:39;4.00;;;3.20;;
75289;SDS011;63883;48.996;20.804;2023-09-19T14:16:06;3.30;;;3.00;;
75289;SDS011;63883;48.996;20.804;2023-09-19T14:18:33;4.13;;;3.15;;
75289;SDS011;63883;48.996;20.804;2023-09-19T14:21:06;3.88;;;3.03;;
75289;SDS011;63883;48.996;20.804;2023-09-19T14:23:37;3.45;;;2.95;;
75289;SDS011;63883;48.996;20.804;2023-09-19T14:26:04;3.28;;;2.97;;
75289;SDS011;63883;48.996;20.804;2023-09-19T14:28:32;3.60;;;3.00;;
75289;SDS011;63883;48.996;20.804;2023-09-19T14:31:05;4.72;;;3.25;;
75289;SDS011;63883;48.996;20.804;2023-09-19T14:33:32;3.83;;;2.75;;
75289;SDS011;63883;48.996;20.804;2023-09-19T14:35:58;3.47;;;3.15;;
75289;SDS011;63883;48.996;20.804;2023-09-19T14:38:23;3.13;;;2.80;;
75289;SDS011;63883;48.996;20.804;2023-09-19T14:40:58;3.83;;;2.80;;
75289;SDS011;63883;48.996;20.804;2023-09-19T14:43:27;4.18;;;3.20;;
75289;SDS011;63883;48.996;20.804;2023-09-19T14:46:04;3.95;;;2.83;;
75289;SDS011;63883;48.996;20.804;2023-09-19T14:48:35;3.28;;;2.70;;
75289;SDS011;63883;48.996;20.804;2023-09-19T14:51:05;2.90;;;2.65;;
75289;SDS011;63883;48.996;20.804;2023-09-19T14:53:33;3.58;;;3.15;;
75289;SDS011;63883;48.996;20.804;2023-09-19T14:56:03;3.80;;;2.95;;
75289;SDS011;63883;48.996;20.804;2023-09-19T14:58:30;4.20;;;3.17;;
75289;SDS011;63883;48.996;20.804;2023-09-19T15:03:33;5.65;;;3.17;;
75289;SDS011;63883;48.996;20.804;2023-09-19T15:06:03;3.83;;;3.00;;
75289;SDS011;63883;48.996;20.804;2023-09-19T15:08:30;3.13;;;2.83;;
75289;SDS011;63883;48.996;20.804;2023-09-19T15:10:56;3.63;;;2.83;;
75289;SDS011;63883;48.996;20.804;2023-09-19T15:13:24;3.25;;;2.95;;
75289;SDS011;63883;48.996;20.804;2023-09-19T15:16:04;4.28;;;3.00;;
75289;SDS011;63883;48.996;20.804;2023-09-19T15:18:34;3.78;;;2.97;;
75289;SDS011;63883;48.996;20.804;2023-09-19T15:21:03;4.05;;;3.03;;
75289;SDS011;63883;48.996;20.804;2023-09-19T15:23:29;7.28;;;4.35;;
75289;SDS011;63883;48.996;20.804;2023-09-19T15:25:58;3.72;;;2.90;;
75289;SDS011;63883;48.996;20.804;2023-09-19T15:28:23;5.35;;;3.33;;
75289;SDS011;63883;48.996;20.804;2023-09-19T15:30:49;3.60;;;3.30;;
75289;SDS011;63883;48.996;20.804;2023-09-19T15:33:15;4.18;;;3.60;;
75289;SDS011;63883;48.996;20.804;2023-09-19T15:35:41;5.05;;;3.10;;
75289;SDS011;63883;48.996;20.804;2023-09-19T15:38:07;6.85;;;4.55;;
75289;SDS011;63883;48.996;20.804;2023-09-19T15:40:33;8.60;;;5.97;;
75289;SDS011;63883;48.996;20.804;2023-09-19T15:42:59;5.38;;;4.45;;
75289;SDS011;63883;48.996;20.804;2023-09-19T15:45:27;8.13;;;3.83;;